Time;durP1;ratioP1;P1;durP2;ratioP2;P2;SDS_P1;SDS_P2;PMS_P1;PMS_P2;Temp;Humidity;BMP_temperature;BMP_pressure;BME280_temperature;BME280_humidity;BME280_pressure;Samples;Min_cycle;Max_cycle;Signal;HPM_P1;HPM_P2
2023/03/30 00:02:09;;;;;;;;;;;13.10;79.80;;;;;;5039709;28;19939;-76
2023/03/30 00:04:41;;;;;;;;;;;13.10;79.80;;;;;;5039585;28;19931;-73
2023/03/30 00:07:08;;;;;;;;;;;13.10;79.90;;;;;;5040232;28;21682;-75
2023/03/30 00:09:42;;;;;;;;;;;13.10;79.90;;;;;;5048132;28;19940;-74
2023/03/30 00:12:09;;;;;;;;;;;13.10;80.00;;;;;;5051041;28;20500;-74
2023/03/30 00:14:36;;;;;;;;;;;13.10;80.20;;;;;;5035507;28;19928;-73
2023/03/30 00:17:02;;;;;;;;;;;13.20;80.30;;;;;;5044122;28;20371;-76
2023/03/30 00:19:29;;;;;;;;;;;13.10;80.20;;;;;;5049138;28;19928;-75
2023/03/30 00:21:57;;;;;;;;;;;13.10;80.50;;;;;;5053814;28;19924;-75
2023/03/30 00:24:24;;;;;;;;;;;13.10;80.60;;;;;;5040112;28;19964;-75
2023/03/30 00:26:50;;;;;;;;;;;13.10;80.80;;;;;;5043646;28;19933;-75
2023/03/30 00:29:17;;;;;;;;;;;13.10;80.80;;;;;;5043179;28;19925;-73
2023/03/30 00:31:44;;;;;;;;;;;13.10;80.90;;;;;;5044890;28;19936;-74
2023/03/30 00:34:10;;;;;;;;;;;13.10;81.10;;;;;;5048129;28;19925;-75
2023/03/30 00:36:37;;;;;;;;;;;13.10;81.20;;;;;;5046716;28;19925;-73
2023/03/30 00:39:05;;;;;;;;;;;13.10;81.30;;;;;;5052187;28;19939;-75
2023/03/30 00:41:32;;;;;;;;;;;13.10;81.30;;;;;;5047318;28;20019;-75
2023/03/30 00:43:59;;;;;;;;;;;13.10;81.40;;;;;;5052625;28;19940;-75
2023/03/30 00:46:26;;;;;;;;;;;13.00;81.40;;;;;;5047180;28;19936;-74
2023/03/30 00:48:56;;;;;;;;;;;13.00;82.20;;;;;;5040891;28;19933;-75
2023/03/30 00:51:23;;;;;;;;;;;13.00;81.50;;;;;;5033697;28;19963;-76
2023/03/30 00:53:51;;;;;;;;;;;13.00;81.40;;;;;;5035565;28;19933;-75
2023/03/30 00:56:22;;;;;;;;;;;13.00;81.50;;;;;;5045286;28;19928;-75
2023/03/30 00:58:50;;;;;;;;;;;13.00;81.50;;;;;;5038965;28;20072;-74
2023/03/30 01:01:24;;;;;;;;;;;13.00;81.50;;;;;;5037571;28;19932;-75
2023/03/30 01:03:52;;;;;;;;;;;13.00;81.60;;;;;;5039081;28;19928;-76
2023/03/30 01:06:23;;;;;;;;;;;13.00;81.60;;;;;;5035661;28;19933;-75
2023/03/30 01:08:50;;;;;;;;;;;12.90;81.70;;;;;;5044997;28;19940;-75
2023/03/30 01:11:16;;;;;;;;;;;13.00;81.70;;;;;;5041446;28;19939;-74
2023/03/30 01:13:46;;;;;;;;;;;13.00;81.80;;;;;;5043203;28;19932;-73
2023/03/30 01:16:18;;;;;;;;;;;13.00;81.80;;;;;;5037639;28;19932;-72
2023/03/30 01:18:49;;;;;;;;;;;13.00;81.90;;;;;;5045330;28;19980;-75
2023/03/30 01:21:30;;;;;;;;;;;12.90;81.90;;;;;;5037899;28;19936;-74
2023/03/30 01:24:03;;;;;;;;;;;13.00;82.00;;;;;;5036979;28;20291;-75
2023/03/30 01:26:47;;;;;;;;;;;12.90;82.00;;;;;;5046494;28;20038;-75
2023/03/30 01:29:19;;;;;;;;;;;12.90;82.00;;;;;;5042329;28;19928;-75
2023/03/30 01:31:59;;;;;;;;;;;12.90;82.10;;;;;;5040326;28;19928;-75
2023/03/30 01:34:43;;;;;;;;;;;12.90;82.20;;;;;;5042810;28;19933;-74
2023/03/30 01:37:27;;;;;;;;;;;12.90;82.20;;;;;;5043799;28;19936;-74
2023/03/30 01:39:57;;;;;;;;;;;12.90;82.10;;;;;;5033908;28;19990;-74
2023/03/30 01:42:27;;;;;;;;;;;12.90;82.00;;;;;;5042241;28;19929;-75
2023/03/30 01:44:56;;;;;;;;;;;12.90;82.00;;;;;;5041042;28;19929;-75
2023/03/30 01:47:24;;;;;;;;;;;12.90;81.90;;;;;;5037770;28;20059;-75
2023/03/30 01:49:54;;;;;;;;;;;13.00;81.90;;;;;;5044405;28;20317;-73
2023/03/30 01:52:24;;;;;;;;;;;13.00;81.80;;;;;;5041745;28;19929;-75
2023/03/30 01:54:54;;;;;;;;;;;13.00;81.80;;;;;;5040350;28;19932;-74
2023/03/30 01:57:23;;;;;;;;;;;13.00;81.80;;;;;;5042947;28;19935;-75
2023/03/30 01:59:53;;;;;;;;;;;13.00;81.70;;;;;;5042475;28;20357;-76
2023/03/30 02:02:21;;;;;;;;;;;13.00;81.70;;;;;;5037796;28;20562;-76
2023/03/30 02:04:48;;;;;;;;;;;13.00;81.70;;;;;;5037605;28;19928;-75
2023/03/30 02:07:17;;;;;;;;;;;13.00;81.70;;;;;;5042195;28;19928;-75
2023/03/30 02:09:45;;;;;;;;;;;13.10;81.80;;;;;;5042344;28;19935;-74
2023/03/30 02:12:12;;;;;;;;;;;13.10;81.70;;;;;;5043929;28;19929;-73
2023/03/30 02:14:41;;;;;;;;;;;13.10;81.70;;;;;;5040124;28;19929;-74
2023/03/30 02:17:11;;;;;;;;;;;13.20;81.90;;;;;;5041179;28;19937;-74
2023/03/30 02:19:38;;;;;;;;;;;13.20;81.90;;;;;;5041059;28;19932;-73
2023/03/30 02:22:05;;;;;;;;;;;13.20;81.80;;;;;;5046476;28;19935;-72
2023/03/30 02:24:32;;;;;;;;;;;13.20;82.00;;;;;;5039128;28;19933;-76
2023/03/30 02:26:59;;;;;;;;;;;13.20;82.30;;;;;;5043664;28;19933;-73
2023/03/30 02:29:26;;;;;;;;;;;13.30;83.00;;;;;;5046654;28;19932;-75
2023/03/30 02:31:55;;;;;;;;;;;13.30;84.90;;;;;;5039952;28;20002;-75
2023/03/30 02:34:27;;;;;;;;;;;13.30;85.50;;;;;;5039610;28;20501;-74
2023/03/30 02:37:02;;;;;;;;;;;13.30;85.80;;;;;;5041093;28;20687;-75
2023/03/30 02:39:33;;;;;;;;;;;13.30;86.60;;;;;;5041146;28;19936;-74
2023/03/30 02:42:15;;;;;;;;;;;13.30;87.00;;;;;;5043217;28;20019;-76
2023/03/30 02:44:44;;;;;;;;;;;13.30;87.20;;;;;;5037842;28;19929;-74
2023/03/30 02:47:16;;;;;;;;;;;13.30;87.10;;;;;;5043255;28;20360;-75
2023/03/30 02:49:50;;;;;;;;;;;13.40;87.20;;;;;;5045172;28;20394;-73
2023/03/30 02:52:21;;;;;;;;;;;13.30;87.30;;;;;;5040404;28;19975;-74
2023/03/30 02:54:50;;;;;;;;;;;13.30;87.10;;;;;;5037044;28;20078;-77
2023/03/30 02:57:20;;;;;;;;;;;13.30;87.90;;;;;;5039272;28;20437;-73
2023/03/30 02:59:49;;;;;;;;;;;13.30;87.90;;;;;;5040622;28;20204;-73
2023/03/30 03:02:20;;;;;;;;;;;13.30;87.70;;;;;;5035872;28;19939;-75
2023/03/30 03:04:48;;;;;;;;;;;13.30;87.90;;;;;;5037222;28;19933;-74
2023/03/30 03:07:15;;;;;;;;;;;13.30;88.10;;;;;;5042023;28;19928;-75
2023/03/30 03:09:42;;;;;;;;;;;13.30;88.00;;;;;;5043291;28;19935;-72
2023/03/30 03:12:08;;;;;;;;;;;13.30;88.10;;;;;;5039596;28;19936;-74
2023/03/30 03:14:35;;;;;;;;;;;13.30;88.30;;;;;;5035042;28;19936;-74
2023/03/30 03:17:03;;;;;;;;;;;13.30;88.20;;;;;;5042380;28;19935;-77
2023/03/30 03:19:32;;;;;;;;;;;13.30;88.00;;;;;;5045512;28;19939;-75
2023/03/30 03:21:58;;;;;;;;;;;13.40;88.40;;;;;;5046479;28;20686;-77
2023/03/30 03:24:25;;;;;;;;;;;13.30;89.10;;;;;;5036683;28;19928;-77
2023/03/30 03:26:51;;;;;;;;;;;13.30;89.30;;;;;;5046504;28;19933;-75
2023/03/30 03:29:18;;;;;;;;;;;13.30;89.30;;;;;;5050660;28;19928;-74
2023/03/30 03:31:44;;;;;;;;;;;13.30;89.30;;;;;;5042879;28;19936;-73
2023/03/30 03:34:11;;;;;;;;;;;13.30;89.30;;;;;;5044056;28;19935;-77
2023/03/30 03:36:39;;;;;;;;;;;13.30;89.40;;;;;;5043275;28;19932;-74
2023/03/30 03:39:05;;;;;;;;;;;13.30;89.20;;;;;;5052146;28;19935;-74
2023/03/30 03:41:32;;;;;;;;;;;13.30;88.90;;;;;;5046974;28;19943;-73
2023/03/30 03:43:59;;;;;;;;;;;13.30;89.00;;;;;;5040174;28;19936;-77
2023/03/30 03:46:25;;;;;;;;;;;13.30;89.10;;;;;;5043407;28;19928;-78
2023/03/30 03:48:52;;;;;;;;;;;13.30;89.30;;;;;;5036909;28;19929;-76
2023/03/30 03:51:18;;;;;;;;;;;13.30;89.40;;;;;;5040274;28;19932;-76
2023/03/30 03:53:48;;;;;;;;;;;13.20;89.60;;;;;;5040206;28;19932;-77
2023/03/30 03:56:15;;;;;;;;;;;13.20;89.70;;;;;;5037720;28;19929;-76
2023/03/30 03:58:42;;;;;;;;;;;13.30;90.10;;;;;;5034962;28;19928;-76
2023/03/30 04:01:08;;;;;;;;;;;13.30;90.10;;;;;;5040316;28;19933;-73
2023/03/30 04:03:35;;;;;;;;;;;13.20;90.00;;;;;;5036159;28;19936;-73
2023/03/30 04:06:01;;;;;;;;;;;13.20;90.30;;;;;;5035190;28;20302;-77
2023/03/30 04:08:28;;;;;;;;;;;13.20;90.00;;;;;;5039201;28;19936;-77
2023/03/30 04:10:56;;;;;;;;;;;13.10;90.00;;;;;;5040387;28;20404;-76
2023/03/30 04:13:23;;;;;;;;;;;13.20;90.10;;;;;;5044958;28;19932;-74
2023/03/30 04:15:49;;;;;;;;;;;13.20;90.10;;;;;;5040141;28;19933;-76
2023/03/30 04:18:16;;;;;;;;;;;13.20;90.10;;;;;;5053191;28;19933;-75
2023/03/30 04:20:42;;;;;;;;;;;13.20;90.30;;;;;;5052539;28;19936;-74
2023/03/30 04:23:15;;;;;;;;;;;13.20;90.40;;;;;;5048004;28;19939;-74
2023/03/30 04:25:41;;;;;;;;;;;13.10;90.30;;;;;;5040685;28;20478;-76
2023/03/30 04:28:10;;;;;;;;;;;13.10;90.30;;;;;;5043119;28;19933;-74
2023/03/30 04:30:37;;;;;;;;;;;13.10;90.30;;;;;;5042137;28;20047;-75
2023/03/30 04:33:04;;;;;;;;;;;13.20;90.50;;;;;;5042037;28;19928;-76
2023/03/30 04:35:31;;;;;;;;;;;13.10;90.60;;;;;;5049285;28;19932;-77
2023/03/30 04:37:58;;;;;;;;;;;13.10;90.60;;;;;;5034028;28;19933;-78
2023/03/30 04:40:25;;;;;;;;;;;13.10;90.70;;;;;;5030031;28;19967;-74
2023/03/30 04:42:52;;;;;;;;;;;13.10;90.70;;;;;;5034654;28;19932;-76
2023/03/30 04:45:20;;;;;;;;;;;13.10;90.80;;;;;;5038219;28;19932;-76
2023/03/30 04:47:47;;;;;;;;;;;13.10;90.80;;;;;;5037342;28;20024;-75
2023/03/30 04:50:14;;;;;;;;;;;13.10;90.90;;;;;;5033663;28;19936;-77
2023/03/30 04:52:40;;;;;;;;;;;13.10;91.00;;;;;;5037867;28;19943;-74
2023/03/30 04:55:07;;;;;;;;;;;13.10;91.20;;;;;;5038511;28;19987;-75
2023/03/30 04:57:34;;;;;;;;;;;13.10;91.30;;;;;;5035463;28;19932;-77
2023/03/30 05:00:00;;;;;;;;;;;13.10;91.30;;;;;;5033797;28;19932;-77
2023/03/30 05:02:28;;;;;;;;;;;13.00;91.40;;;;;;5035941;28;19929;-77
2023/03/30 05:04:55;;;;;;;;;;;13.10;91.60;;;;;;5039055;28;20005;-74
2023/03/30 05:07:21;;;;;;;;;;;13.00;91.60;;;;;;5040857;28;19940;-75
2023/03/30 05:09:48;;;;;;;;;;;13.00;91.70;;;;;;5038372;28;19935;-76
2023/03/30 05:12:15;;;;;;;;;;;13.00;91.80;;;;;;5039370;28;19940;-74
2023/03/30 05:14:41;;;;;;;;;;;13.00;91.80;;;;;;5043527;28;19938;-74
2023/03/30 05:17:08;;;;;;;;;;;13.00;91.80;;;;;;5036844;28;20027;-75
2023/03/30 05:19:36;;;;;;;;;;;13.00;91.90;;;;;;5034909;28;19929;-76
2023/03/30 05:22:03;;;;;;;;;;;13.00;91.90;;;;;;5039231;28;20028;-75
2023/03/30 05:24:29;;;;;;;;;;;13.00;91.90;;;;;;5037287;28;19939;-77
2023/03/30 05:26:56;;;;;;;;;;;13.00;91.90;;;;;;5042771;28;19936;-75
2023/03/30 05:29:22;;;;;;;;;;;13.00;91.90;;;;;;5045810;28;19937;-75
2023/03/30 05:31:49;;;;;;;;;;;13.00;91.90;;;;;;5035828;28;19932;-74
2023/03/30 05:34:16;;;;;;;;;;;13.00;92.00;;;;;;5041678;28;19929;-74
2023/03/30 05:36:44;;;;;;;;;;;12.90;92.00;;;;;;5042621;28;19933;-73
2023/03/30 05:39:10;;;;;;;;;;;12.90;92.00;;;;;;5043794;28;19933;-72
2023/03/30 05:41:37;;;;;;;;;;;13.00;92.00;;;;;;5036436;28;19932;-75
2023/03/30 05:44:05;;;;;;;;;;;12.90;92.00;;;;;;5035647;28;19933;-74
2023/03/30 05:46:31;;;;;;;;;;;13.00;93.20;;;;;;5034397;28;19972;-75
2023/03/30 05:48:58;;;;;;;;;;;13.00;94.50;;;;;;5044034;28;19936;-78
2023/03/30 05:51:25;;;;;;;;;;;13.00;94.70;;;;;;5045875;28;20378;-73
2023/03/30 05:53:53;;;;;;;;;;;13.00;94.80;;;;;;5039484;28;19933;-76
2023/03/30 05:56:20;;;;;;;;;;;12.90;94.90;;;;;;5037596;28;19929;-74
2023/03/30 05:58:46;;;;;;;;;;;12.90;95.00;;;;;;5034928;28;20724;-77
2023/03/30 06:01:13;;;;;;;;;;;12.90;95.00;;;;;;5028218;28;20405;-74
2023/03/30 06:03:40;;;;;;;;;;;12.90;95.00;;;;;;5033353;28;20609;-73
2023/03/30 06:06:08;;;;;;;;;;;12.80;95.00;;;;;;5044705;28;20382;-74
2023/03/30 06:08:34;;;;;;;;;;;12.80;95.00;;;;;;5044474;28;19932;-79
2023/03/30 06:11:02;;;;;;;;;;;12.80;95.00;;;;;;5043880;28;20025;-76
2023/03/30 06:13:30;;;;;;;;;;;12.80;95.00;;;;;;5043774;28;19929;-76
2023/03/30 06:15:57;;;;;;;;;;;12.80;95.00;;;;;;5042811;28;19936;-78
2023/03/30 06:18:23;;;;;;;;;;;12.80;95.00;;;;;;5042173;28;19928;-72
2023/03/30 06:20:51;;;;;;;;;;;12.80;94.90;;;;;;5045634;28;19976;-77
2023/03/30 06:23:18;;;;;;;;;;;12.80;94.80;;;;;;5051902;28;19934;-72
2023/03/30 06:25:46;;;;;;;;;;;12.80;94.80;;;;;;5049031;28;19929;-72
2023/03/30 06:28:13;;;;;;;;;;;12.80;94.90;;;;;;5050211;28;20027;-74
2023/03/30 06:30:41;;;;;;;;;;;12.70;95.10;;;;;;5044504;28;20763;-73
2023/03/30 06:33:08;;;;;;;;;;;12.70;95.10;;;;;;5043363;28;19936;-76
2023/03/30 06:35:35;;;;;;;;;;;12.70;95.10;;;;;;5045812;28;19928;-72
2023/03/30 06:38:01;;;;;;;;;;;12.70;95.00;;;;;;5042749;28;19929;-75
2023/03/30 06:40:28;;;;;;;;;;;12.70;95.10;;;;;;5039567;28;19928;-75
2023/03/30 06:42:55;;;;;;;;;;;12.70;95.10;;;;;;5041574;28;19940;-76
2023/03/30 06:45:23;;;;;;;;;;;12.70;95.10;;;;;;5038571;28;20055;-75
2023/03/30 06:47:50;;;;;;;;;;;12.60;95.10;;;;;;5033229;28;20003;-78
2023/03/30 06:50:17;;;;;;;;;;;12.70;95.30;;;;;;5026563;28;19933;-74
2023/03/30 06:52:43;;;;;;;;;;;12.70;95.40;;;;;;5022792;28;19933;-78
2023/03/30 06:55:10;;;;;;;;;;;12.60;95.40;;;;;;5026267;28;19933;-73
2023/03/30 06:57:36;;;;;;;;;;;12.60;95.40;;;;;;5029648;28;19929;-71
2023/03/30 07:00:08;;;;;;;;;;;12.60;95.50;;;;;;5030230;28;19939;-76
2023/03/30 07:02:36;;;;;;;;;;;12.60;95.50;;;;;;5040648;28;19936;-75
2023/03/30 07:05:02;;;;;;;;;;;12.60;95.40;;;;;;5038799;28;20395;-74
2023/03/30 07:07:29;;;;;;;;;;;12.60;95.50;;;;;;5046582;28;19928;-77
2023/03/30 07:09:56;;;;;;;;;;;12.60;95.60;;;;;;5038590;28;19928;-72
2023/03/30 07:12:22;;;;;;;;;;;12.60;95.70;;;;;;5039474;28;19928;-75
2023/03/30 07:14:49;;;;;;;;;;;12.60;95.70;;;;;;5035406;28;19960;-75
2023/03/30 07:17:16;;;;;;;;;;;12.60;95.80;;;;;;5038639;28;19929;-75
2023/03/30 07:19:44;;;;;;;;;;;12.60;95.80;;;;;;5038556;28;19955;-75
2023/03/30 07:22:10;;;;;;;;;;;12.60;95.90;;;;;;5045336;28;19936;-72
2023/03/30 07:24:37;;;;;;;;;;;12.60;96.00;;;;;;5041951;28;19936;-74
2023/03/30 07:27:03;;;;;;;;;;;12.50;95.80;;;;;;5041724;28;19933;-71
2023/03/30 07:29:30;;;;;;;;;;;12.50;95.50;;;;;;5047028;28;19936;-81
2023/03/30 07:31:57;;;;;;;;;;;12.50;95.40;;;;;;5036212;28;19933;-76
2023/03/30 07:34:24;;;;;;;;;;;12.60;95.40;;;;;;5035693;28;19997;-74
2023/03/30 07:36:52;;;;;;;;;;;12.50;95.40;;;;;;5044769;28;19972;-71
2023/03/30 07:39:19;;;;;;;;;;;12.40;95.30;;;;;;5039539;28;20682;-73
2023/03/30 07:41:45;;;;;;;;;;;12.50;95.50;;;;;;5038274;28;19929;-74
2023/03/30 07:44:12;;;;;;;;;;;12.50;95.60;;;;;;5043465;28;19932;-74
2023/03/30 07:46:38;;;;;;;;;;;12.50;95.80;;;;;;5040179;28;19928;-73
2023/03/30 07:49:05;;;;;;;;;;;12.50;96.00;;;;;;5039865;28;19933;-74
2023/03/30 07:51:32;;;;;;;;;;;12.40;96.20;;;;;;5046873;28;19936;-77
2023/03/30 07:54:00;;;;;;;;;;;12.50;96.40;;;;;;5049148;28;19924;-74
2023/03/30 07:56:26;;;;;;;;;;;12.50;96.40;;;;;;5042440;28;19932;-75
2023/03/30 07:58:53;;;;;;;;;;;12.50;96.50;;;;;;5036881;28;19963;-73
2023/03/30 08:01:20;;;;;;;;;;;12.50;96.50;;;;;;5041644;28;20291;-74
2023/03/30 08:03:48;;;;;;;;;;;12.40;96.60;;;;;;5047627;28;19936;-72
2023/03/30 08:06:14;;;;;;;;;;;12.50;96.70;;;;;;5054883;28;19932;-74
2023/03/30 08:08:42;;;;;;;;;;;12.50;96.80;;;;;;5051630;28;20009;-71
2023/03/30 08:11:11;;;;;;;;;;;12.40;96.70;;;;;;5046511;28;19925;-75
2023/03/30 08:13:38;;;;;;;;;;;12.40;96.70;;;;;;5045797;28;19925;-71
2023/03/30 08:16:04;;;;;;;;;;;12.40;96.70;;;;;;5045959;28;19936;-71
2023/03/30 08:18:31;;;;;;;;;;;12.40;96.70;;;;;;5044822;28;19929;-72
2023/03/30 08:20:58;;;;;;;;;;;12.40;96.70;;;;;;5050539;28;19929;-73
2023/03/30 08:23:24;;;;;;;;;;;12.50;96.70;;;;;;5048816;28;19933;-75
2023/03/30 08:25:51;;;;;;;;;;;12.40;96.60;;;;;;5047405;28;19936;-73
2023/03/30 08:28:20;;;;;;;;;;;12.40;96.60;;;;;;5055579;28;19936;-72
2023/03/30 08:30:46;;;;;;;;;;;12.40;96.70;;;;;;5052500;28;19935;-71
2023/03/30 08:33:13;;;;;;;;;;;12.40;96.80;;;;;;5047865;28;19932;-72
2023/03/30 08:35:40;;;;;;;;;;;12.40;96.90;;;;;;5051017;28;20283;-74
2023/03/30 08:38:06;;;;;;;;;;;12.40;96.90;;;;;;5054483;28;20326;-73
2023/03/30 08:40:33;;;;;;;;;;;12.50;97.00;;;;;;5045331;28;20229;-73
2023/03/30 08:43:22;;;;;;;;;;;12.40;97.00;;;;;;5049347;28;19939;-71
2023/03/30 08:45:49;;;;;;;;;;;12.40;97.00;;;;;;5041984;28;19929;-76
2023/03/30 08:48:17;;;;;;;;;;;12.40;97.10;;;;;;5047251;28;20306;-70
2023/03/30 08:50:47;;;;;;;;;;;12.50;97.20;;;;;;5039873;28;20636;-77
2023/03/30 08:53:14;;;;;;;;;;;12.50;97.30;;;;;;5037110;28;20688;-76
2023/03/30 08:55:42;;;;;;;;;;;12.50;97.60;;;;;;5042393;28;19929;-72
2023/03/30 08:58:14;;;;;;;;;;;12.60;97.90;;;;;;5044837;28;19928;-75
2023/03/30 09:00:44;;;;;;;;;;;12.60;98.20;;;;;;5039167;28;19940;-76
2023/03/30 09:03:15;;;;;;;;;;;12.70;98.30;;;;;;5044076;28;20027;-72
2023/03/30 09:05:45;;;;;;;;;;;12.60;98.20;;;;;;5046227;28;20453;-72
2023/03/30 09:08:15;;;;;;;;;;;12.70;98.20;;;;;;5047536;28;19963;-72
2023/03/30 09:10:45;;;;;;;;;;;12.80;98.10;;;;;;5036016;28;19929;-74
2023/03/30 09:13:13;;;;;;;;;;;12.80;97.90;;;;;;5043027;28;19928;-70
2023/03/30 09:15:43;;;;;;;;;;;12.80;97.80;;;;;;5044451;28;20458;-76
2023/03/30 09:18:15;;;;;;;;;;;12.80;97.60;;;;;;5040120;28;19936;-74
2023/03/30 09:20:42;;;;;;;;;;;12.80;97.80;;;;;;5041905;28;19936;-72
2023/03/30 09:23:12;;;;;;;;;;;12.80;97.90;;;;;;5043771;28;19936;-76
2023/03/30 09:25:43;;;;;;;;;;;12.90;98.00;;;;;;5042783;28;19929;-76
2023/03/30 09:28:14;;;;;;;;;;;12.80;98.00;;;;;;5049425;28;20732;-73
2023/03/30 09:30:42;;;;;;;;;;;12.90;98.10;;;;;;5050356;28;19929;-80
2023/03/30 09:33:14;;;;;;;;;;;12.90;98.20;;;;;;5041431;28;19936;-75
2023/03/30 09:35:42;;;;;;;;;;;12.90;98.20;;;;;;5044051;28;19932;-74
2023/03/30 09:38:12;;;;;;;;;;;12.90;98.20;;;;;;5043457;28;19929;-75
2023/03/30 09:40:46;;;;;;;;;;;13.00;98.30;;;;;;5040628;28;19928;-74
2023/03/30 09:43:14;;;;;;;;;;;13.00;98.30;;;;;;5046917;28;19925;-72
2023/03/30 09:45:42;;;;;;;;;;;13.00;98.30;;;;;;5042798;28;19935;-75
2023/03/30 09:48:09;;;;;;;;;;;13.00;98.30;;;;;;5043126;28;20383;-72
2023/03/30 09:50:39;;;;;;;;;;;13.10;98.40;;;;;;5045681;28;20306;-78
2023/03/30 09:53:08;;;;;;;;;;;13.10;98.40;;;;;;5042073;28;20519;-74
2023/03/30 09:55:36;;;;;;;;;;;13.10;98.30;;;;;;5046896;28;19928;-73
2023/03/30 09:58:13;;;;;;;;;;;13.10;98.30;;;;;;5044772;28;19928;-76
2023/03/30 10:00:40;;;;;;;;;;;13.10;98.20;;;;;;5043533;28;19929;-73
2023/03/30 10:03:07;;;;;;;;;;;13.10;98.20;;;;;;5046351;28;19943;-72
2023/03/30 10:05:35;;;;;;;;;;;13.10;98.30;;;;;;5048798;28;19940;-74
2023/03/30 10:08:04;;;;;;;;;;;13.10;98.30;;;;;;5047026;28;19978;-74
2023/03/30 10:10:32;;;;;;;;;;;13.10;98.20;;;;;;5049184;28;19932;-76
2023/03/30 10:13:06;;;;;;;;;;;13.10;98.20;;;;;;5050235;28;21308;-75
2023/03/30 10:15:35;;;;;;;;;;;13.10;98.20;;;;;;5048680;28;20881;-73
2023/03/30 10:18:18;;;;;;;;;;;13.20;98.30;;;;;;5043691;28;19939;-75
2023/03/30 10:20:50;;;;;;;;;;;13.20;98.30;;;;;;5050917;28;19990;-74
2023/03/30 10:23:21;;;;;;;;;;;13.20;98.40;;;;;;5052174;28;19935;-74
2023/03/30 10:25:49;;;;;;;;;;;13.30;98.40;;;;;;5045816;28;19928;-74
2023/03/30 10:28:20;;;;;;;;;;;13.30;98.30;;;;;;5045404;28;19968;-76
2023/03/30 10:30:51;;;;;;;;;;;13.30;98.10;;;;;;5047331;28;20017;-73
2023/03/30 10:33:17;;;;;;;;;;;13.40;98.00;;;;;;5042885;28;19928;-73
2023/03/30 10:35:47;;;;;;;;;;;13.30;97.80;;;;;;5039328;28;19940;-76
2023/03/30 10:38:14;;;;;;;;;;;13.40;97.70;;;;;;5042337;28;19933;-75
2023/03/30 10:40:44;;;;;;;;;;;13.40;97.50;;;;;;5046333;28;20436;-74
2023/03/30 10:43:13;;;;;;;;;;;13.50;97.30;;;;;;5043863;28;20232;-77
2023/03/30 10:45:41;;;;;;;;;;;13.60;97.10;;;;;;5044399;28;20015;-73
2023/03/30 10:48:23;;;;;;;;;;;13.60;96.80;;;;;;5044441;28;19928;-73
2023/03/30 10:50:54;;;;;;;;;;;13.70;96.40;;;;;;5028365;28;19925;-77
2023/03/30 10:53:32;;;;;;;;;;;13.80;96.10;;;;;;5041029;28;19948;-73
2023/03/30 10:56:03;;;;;;;;;;;13.80;95.70;;;;;;5035180;28;19932;-76
2023/03/30 10:58:41;;;;;;;;;;;14.00;95.40;;;;;;5040434;28;19929;-75
2023/03/30 11:01:11;;;;;;;;;;;14.00;94.90;;;;;;5034592;28;20020;-76
2023/03/30 11:03:39;;;;;;;;;;;14.10;94.60;;;;;;5038742;28;20082;-73
2023/03/30 11:06:09;;;;;;;;;;;14.00;94.70;;;;;;5043626;28;19933;-74
2023/03/30 11:08:38;;;;;;;;;;;14.10;94.30;;;;;;5038739;28;19932;-74
2023/03/30 11:11:06;;;;;;;;;;;14.10;94.20;;;;;;5038812;28;20018;-75
2023/03/30 11:13:35;;;;;;;;;;;14.10;94.10;;;;;;5041923;28;20144;-75
2023/03/30 11:16:05;;;;;;;;;;;14.10;94.00;;;;;;5036365;28;20392;-76
2023/03/30 11:18:35;;;;;;;;;;;14.10;93.90;;;;;;5040589;28;19925;-75
2023/03/30 11:21:03;;;;;;;;;;;14.10;94.00;;;;;;5045839;28;19935;-75
2023/03/30 11:23:36;;;;;;;;;;;14.10;94.00;;;;;;5041462;28;19944;-79
2023/03/30 11:26:04;;;;;;;;;;;14.10;94.00;;;;;;5035602;28;19936;-77
2023/03/30 11:28:52;;;;;;;;;;;14.10;94.10;;;;;;5044131;28;19928;-76
2023/03/30 11:31:28;;;;;;;;;;;14.20;94.10;;;;;;5033139;28;19929;-79
2023/03/30 11:33:58;;;;;;;;;;;14.20;94.20;;;;;;5039255;28;19933;-77
2023/03/30 11:36:28;;;;;;;;;;;14.30;94.20;;;;;;5042110;28;19932;-78
2023/03/30 11:38:57;;;;;;;;;;;14.40;94.00;;;;;;5046104;28;19940;-78
2023/03/30 11:41:27;;;;;;;;;;;14.40;93.90;;;;;;5045017;28;19936;-77
2023/03/30 11:43:54;;;;;;;;;;;14.50;93.70;;;;;;5037555;28;20031;-76
2023/03/30 11:46:24;;;;;;;;;;;14.60;93.50;;;;;;5047717;28;19964;-74
2023/03/30 11:49:01;;;;;;;;;;;14.60;93.40;;;;;;5041483;28;19940;-73
2023/03/30 11:51:38;;;;;;;;;;;14.70;93.20;;;;;;5049638;28;19924;-78
2023/03/30 11:54:16;;;;;;;;;;;14.70;93.00;;;;;;5041861;28;20431;-74
2023/03/30 11:56:45;;;;;;;;;;;14.70;92.80;;;;;;5048531;28;19929;-74
2023/03/30 11:59:16;;;;;;;;;;;14.70;92.70;;;;;;5041449;28;19939;-76
2023/03/30 12:01:53;;;;;;;;;;;14.80;92.50;;;;;;5042110;28;19933;-76
2023/03/30 12:04:25;;;;;;;;;;;14.80;92.30;;;;;;5045909;28;20037;-75
2023/03/30 12:06:55;;;;;;;;;;;14.90;92.20;;;;;;5045541;28;19928;-76
2023/03/30 12:09:26;;;;;;;;;;;14.90;92.10;;;;;;5044206;28;19939;-75
2023/03/30 12:11:54;;;;;;;;;;;15.00;92.00;;;;;;5041997;28;19936;-76
2023/03/30 12:14:33;;;;;;;;;;;15.10;91.60;;;;;;5043610;28;19935;-75
2023/03/30 12:17:02;;;;;;;;;;;15.20;91.30;;;;;;5043909;28;20582;-75
2023/03/30 12:19:32;;;;;;;;;;;15.30;91.00;;;;;;5042537;28;20387;-76
2023/03/30 12:22:01;;;;;;;;;;;15.30;90.80;;;;;;5046841;28;19929;-78
2023/03/30 12:24:30;;;;;;;;;;;15.40;90.70;;;;;;5049416;28;19936;-78
2023/03/30 12:26:57;;;;;;;;;;;15.50;90.50;;;;;;5054376;28;20397;-73
2023/03/30 12:29:24;;;;;;;;;;;15.50;90.30;;;;;;5049857;28;20640;-76
2023/03/30 12:32:02;;;;;;;;;;;15.50;90.00;;;;;;5037431;28;19929;-73
2023/03/30 12:34:32;;;;;;;;;;;15.50;90.00;;;;;;5044289;28;19971;-72
2023/03/30 12:37:01;;;;;;;;;;;15.50;89.90;;;;;;5045393;28;19954;-76
2023/03/30 12:39:29;;;;;;;;;;;15.50;89.50;;;;;;5040752;28;20722;-77
2023/03/30 12:42:03;;;;;;;;;;;15.60;89.40;;;;;;5052233;28;19933;-74
2023/03/30 12:44:35;;;;;;;;;;;15.60;89.30;;;;;;5051655;28;19974;-75
2023/03/30 12:47:17;;;;;;;;;;;15.60;89.20;;;;;;5052531;28;19933;-75
2023/03/30 12:49:53;;;;;;;;;;;15.60;89.30;;;;;;5041775;28;20043;-77
2023/03/30 12:52:25;;;;;;;;;;;15.70;89.20;;;;;;5042001;28;19935;-74
2023/03/30 12:55:07;;;;;;;;;;;15.80;89.00;;;;;;5045058;28;20650;-73
2023/03/30 12:57:42;;;;;;;;;;;15.80;88.70;;;;;;5048176;28;19932;-73
2023/03/30 13:00:36;;;;;;;;;;;15.80;88.30;;;;;;5049399;28;19928;-75
2023/03/30 13:03:17;;;;;;;;;;;15.80;88.10;;;;;;5050498;28;19936;-75
2023/03/30 13:05:50;;;;;;;;;;;15.80;88.10;;;;;;5048484;28;19982;-77
2023/03/30 13:08:19;;;;;;;;;;;15.80;88.20;;;;;;5048264;28;19976;-74
2023/03/30 13:10:45;;;;;;;;;;;15.80;88.20;;;;;;5045720;28;19932;-71
2023/03/30 13:13:22;;;;;;;;;;;15.90;87.70;;;;;;5043511;28;19935;-73
2023/03/30 13:15:50;;;;;;;;;;;16.10;87.00;;;;;;5047379;28;20425;-75
2023/03/30 13:18:33;;;;;;;;;;;16.20;87.10;;;;;;5040157;28;19933;-74
2023/03/30 13:21:03;;;;;;;;;;;16.20;87.30;;;;;;5043303;28;19984;-71
2023/03/30 13:23:31;;;;;;;;;;;16.30;87.20;;;;;;5050871;28;19932;-76
2023/03/30 13:26:03;;;;;;;;;;;16.40;86.60;;;;;;5035857;28;19932;-77
2023/03/30 13:28:33;;;;;;;;;;;16.50;86.40;;;;;;5039173;28;19928;-75
2023/03/30 13:31:02;;;;;;;;;;;16.60;86.80;;;;;;5039622;28;19933;-75
2023/03/30 13:33:29;;;;;;;;;;;16.70;86.70;;;;;;5043860;28;19928;-72
2023/03/30 13:36:00;;;;;;;;;;;16.80;86.40;;;;;;5039255;28;21749;-72
2023/03/30 13:38:36;;;;;;;;;;;17.00;86.00;;;;;;5044929;28;19940;-72
2023/03/30 13:41:09;;;;;;;;;;;17.10;85.30;;;;;;5043614;28;19928;-75
2023/03/30 13:43:54;;;;;;;;;;;17.20;85.10;;;;;;5032894;28;21203;-79
2023/03/30 13:46:24;;;;;;;;;;;17.30;83.80;;;;;;5029314;28;19929;-78
2023/03/30 13:48:58;;;;;;;;;;;17.40;82.80;;;;;;5049210;28;19933;-79
2023/03/30 13:51:27;;;;;;;;;;;17.50;81.40;;;;;;5049887;28;19978;-78
2023/03/30 13:53:56;;;;;;;;;;;17.70;80.40;;;;;;5042627;28;19982;-81
2023/03/30 13:56:23;;;;;;;;;;;17.80;79.30;;;;;;5031242;28;20027;-73
2023/03/30 13:58:54;;;;;;;;;;;17.80;78.10;;;;;;5038146;28;19929;-72
2023/03/30 14:01:21;;;;;;;;;;;17.90;77.90;;;;;;5037254;28;20727;-78
2023/03/30 14:03:48;;;;;;;;;;;18.00;77.70;;;;;;5036734;28;19936;-73
2023/03/30 14:06:16;;;;;;;;;;;18.00;77.70;;;;;;5041397;28;19940;-77
2023/03/30 14:08:45;;;;;;;;;;;18.00;77.20;;;;;;5042711;28;19928;-72
2023/03/30 14:11:15;;;;;;;;;;;18.00;77.00;;;;;;5035563;28;19929;-72
2023/03/30 14:13:42;;;;;;;;;;;18.00;76.90;;;;;;5039672;28;20040;-81
2023/03/30 14:16:10;;;;;;;;;;;18.00;77.00;;;;;;5040254;28;20824;-74
2023/03/30 14:18:36;;;;;;;;;;;18.00;76.50;;;;;;5038207;28;19932;-73
2023/03/30 14:21:04;;;;;;;;;;;17.90;75.90;;;;;;5035292;28;19936;-74
2023/03/30 14:23:33;;;;;;;;;;;17.90;75.90;;;;;;5042917;28;19936;-73
2023/03/30 14:26:01;;;;;;;;;;;17.90;75.60;;;;;;5037339;28;19924;-76
2023/03/30 14:28:33;;;;;;;;;;;17.90;75.00;;;;;;5043852;28;19928;-74